Accueil
METAR-TAF:

METAR-TAF

Aéroports :

Christchurch, Nouvelle-Zélande

Aéroport international de Christchurch

latitude: 43-29S, longitude: 172-33E, altitude: 38 m

Observation

Le bulletin a été fait il y a 29 minutes, à 06:30 UTC
Vent 7 kt de ouest/sud-ouest, variant entre sud/sud-ouest et ouest
Température 7°C
Humidité 93%
Pression 1020 hPa
Visibilité 10 km ou plus

METAR: NZCH 270630Z AUTO 24007KT 200V260 9999 FEW020/// 07/06 Q1020 TEMPO BKN014

Heure: 18:59 (06:59 UTC)

Prévision

Le bulletin a été fait il y a 1 heure et 57 minutes, à 05:02 UTC
Prévision valable du 27 à 06 UTC au 28 à 06 UTC
Vent 8 kt de ouest/sud-ouest
Visibilité 10 km ou plus
Nuages fragmentés à une hauteur de 2500 ft
faibles averses de pluie
Temporairement
du 27 à 06 UTC au 27 à 09 UTC
Nuages fragmentés à une hauteur de 1200 ft

TAF: NZCH 270502Z 2706/2806 24008KT 9999 -SHRA BKN025 TEMPO 2706/2709 BKN012

Observations et prévisions météorologiques de plus de 4000 aéroports (messages METAR et TAF).

Les stations disponibles sont représentées par des disques jaunes et rouges sur la carte.

Passer la souris dessus pour voir le nom de la station.

Cliquer dessus pour voir les observations et prévisions météorologiques.

Pour changer de carte: cliquez sur les boutons verts avec une croix noire pour zoomer, sur le bouton vert avec un tiret pour effectuer un zoom arrière, ou sur les flèches vertes pour les cartes adjacentes.


METAR-TAF: